createdAt,value
2018-12-02T00:00:04.543Z,5.97
2018-12-02T00:00:45.101Z,5.94
2018-12-02T00:01:25.662Z,5.94
2018-12-02T00:02:06.218Z,5.93
2018-12-02T00:02:46.801Z,5.97
2018-12-02T00:03:27.353Z,5.93
2018-12-02T00:04:07.934Z,5.99
2018-12-02T00:04:48.483Z,5.94
2018-12-02T00:05:29.065Z,5.97
2018-12-02T00:06:09.614Z,5.97
2018-12-02T00:06:50.181Z,5.93
2018-12-02T00:07:30.736Z,5.91
2018-12-02T00:08:11.291Z,5.91
2018-12-02T00:08:51.866Z,5.9
2018-12-02T00:09:32.422Z,5.93
2018-12-02T00:10:13.005Z,5.86
2018-12-02T00:10:53.557Z,5.93
2018-12-02T00:11:34.107Z,5.94
2018-12-02T00:12:14.691Z,5.91
2018-12-02T00:12:55.267Z,5.93
2018-12-02T00:13:35.834Z,5.89
2018-12-02T00:14:16.385Z,5.89
2018-12-02T00:14:56.942Z,5.94
2018-12-02T00:15:37.486Z,5.91
2018-12-02T00:16:18.060Z,5.97
2018-12-02T00:16:58.599Z,5.94
2018-12-02T00:17:39.173Z,5.86
2018-12-02T00:18:19.746Z,5.94
2018-12-02T00:19:00.302Z,5.91
2018-12-02T00:19:40.868Z,5.98
2018-12-02T00:20:21.441Z,5.93
2018-12-02T00:21:02.001Z,6.01
2018-12-02T00:21:42.553Z,5.87
2018-12-02T00:22:23.101Z,5.99
2018-12-02T00:23:03.655Z,5.97
2018-12-02T00:23:44.225Z,5.9
2018-12-02T00:24:24.780Z,5.97
2018-12-02T00:25:05.334Z,5.93
2018-12-02T00:25:45.912Z,5.94
2018-12-02T00:26:26.476Z,5.93
2018-12-02T00:27:07.029Z,5.97
2018-12-02T00:27:47.594Z,5.9
2018-12-02T00:28:28.159Z,5.9
2018-12-02T00:29:08.707Z,5.91
2018-12-02T00:29:49.257Z,5.89
2018-12-02T00:30:29.828Z,5.93
2018-12-02T00:31:10.401Z,5.94
2018-12-02T00:31:50.956Z,5.93
2018-12-02T00:32:31.527Z,5.97
2018-12-02T00:33:12.109Z,5.97
2018-12-02T00:33:52.648Z,5.9
2018-12-02T00:34:33.203Z,5.93
2018-12-02T00:35:13.763Z,5.9
2018-12-02T00:35:54.354Z,5.98
2018-12-02T00:36:34.925Z,5.97
2018-12-02T00:37:15.489Z,5.98
2018-12-02T00:37:56.056Z,5.94
2018-12-02T00:38:36.604Z,6.01
2018-12-02T00:39:17.168Z,5.91
2018-12-02T00:39:57.730Z,6.01
2018-12-02T00:40:38.285Z,5.98
2018-12-02T00:41:18.843Z,6.05
2018-12-02T00:41:59.396Z,5.99
2018-12-02T00:42:39.971Z,5.93
2018-12-02T00:43:20.548Z,6.04
2018-12-02T00:44:02.008Z,5.94
2018-12-02T00:44:41.663Z,5.99
2018-12-02T00:45:22.261Z,5.93
2018-12-02T00:46:02.813Z,5.97
2018-12-02T00:46:43.469Z,5.94
2018-12-02T00:47:24.037Z,5.98
2018-12-02T00:48:04.605Z,5.99
2018-12-02T00:48:45.154Z,6.07
2018-12-02T00:49:25.703Z,5.98
2018-12-02T00:50:06.284Z,5.93
2018-12-02T00:50:46.845Z,5.98
2018-12-02T00:51:27.418Z,6.02
2018-12-02T00:52:07.971Z,5.99
2018-12-02T00:52:48.532Z,5.97
2018-12-02T00:53:29.077Z,6.05
2018-12-02T00:54:09.639Z,5.99
2018-12-02T00:54:50.206Z,6.04
2018-12-02T00:55:30.767Z,6.07
2018-12-02T00:56:11.348Z,6.05
2018-12-02T00:56:51.902Z,6.01
2018-12-02T00:57:32.445Z,6.01
2018-12-02T00:58:12.995Z,5.99
2018-12-02T00:58:53.563Z,6.11
2018-12-02T00:59:34.155Z,5.97
2018-12-02T01:00:14.732Z,6.09
2018-12-02T01:00:55.286Z,6.02
2018-12-02T01:01:35.855Z,6.02
2018-12-02T01:02:16.411Z,6.12
2018-12-02T01:02:56.963Z,5.91
2018-12-02T01:03:37.517Z,6.02
2018-12-02T01:04:18.087Z,6.05
2018-12-02T01:04:58.646Z,6.11
2018-12-02T01:05:39.198Z,6.07
2018-12-02T01:06:19.764Z,6.11
2018-12-02T01:07:00.330Z,6.12
2018-12-02T01:07:40.879Z,6.16
2018-12-02T01:08:21.459Z,6.11
2018-12-02T01:09:02.025Z,6.05
2018-12-02T01:09:42.577Z,6.11
2018-12-02T01:10:23.163Z,5.9
2018-12-02T01:11:03.756Z,6.04
2018-12-02T01:11:44.316Z,5.99
2018-12-02T01:12:24.867Z,6.01
2018-12-02T01:13:05.432Z,6.02
2018-12-02T01:13:45.985Z,6.07
2018-12-02T01:14:26.577Z,6.02
2018-12-02T01:15:07.174Z,6.08
2018-12-02T01:15:47.722Z,6.05
2018-12-02T01:16:28.289Z,5.97
2018-12-02T01:17:08.843Z,6.08
2018-12-02T01:17:49.394Z,5.9
2018-12-02T01:18:29.962Z,6.08
2018-12-02T01:19:10.519Z,5.91
2018-12-02T01:19:51.085Z,5.98
2018-12-02T01:20:31.627Z,6.05
2018-12-02T01:21:12.182Z,6.08
2018-12-02T01:21:52.749Z,6.02
2018-12-02T01:22:33.313Z,6.11
2018-12-02T01:23:13.880Z,6.05
2018-12-02T01:23:54.445Z,6.04
2018-12-02T01:24:34.990Z,6.02
2018-12-02T01:25:15.547Z,6.02
2018-12-02T01:25:56.105Z,6.11
2018-12-02T01:26:36.694Z,5.97
2018-12-02T01:27:17.253Z,6.04
2018-12-02T01:27:57.834Z,5.97
2018-12-02T01:28:38.396Z,6.07
2018-12-02T01:29:18.958Z,6.08
2018-12-02T01:29:59.509Z,6.08
2018-12-02T01:30:40.060Z,6.02
2018-12-02T01:31:20.647Z,6.01
2018-12-02T01:32:01.217Z,6.04
2018-12-02T01:32:41.777Z,6.05
2018-12-02T01:33:22.336Z,6.09
2018-12-02T01:34:02.900Z,6.04
2018-12-02T01:34:43.473Z,6.05
2018-12-02T01:35:24.034Z,6.02
2018-12-02T01:36:04.634Z,6.07
2018-12-02T01:36:45.196Z,6.07
2018-12-02T01:37:25.767Z,6.01
2018-12-02T01:38:06.388Z,6.05
2018-12-02T01:38:46.964Z,6.07
2018-12-02T01:39:27.535Z,6.04
2018-12-02T01:40:08.098Z,6.02
2018-12-02T01:40:48.658Z,6.01
2018-12-02T01:41:29.236Z,6.12
2018-12-02T01:42:09.797Z,6.07
2018-12-02T01:42:50.360Z,6.12
2018-12-02T01:43:30.924Z,6.14
2018-12-02T01:44:11.467Z,6.07
2018-12-02T01:44:52.016Z,6.05
2018-12-02T01:45:32.569Z,6.08
2018-12-02T01:46:13.132Z,6.07
2018-12-02T01:46:53.682Z,6.08
2018-12-02T01:47:34.233Z,6.12
2018-12-02T01:48:14.814Z,6.14
2018-12-02T01:48:55.375Z,6.11
2018-12-02T01:49:35.958Z,6.09
2018-12-02T01:50:16.501Z,6.05
2018-12-02T01:50:57.063Z,6.05
2018-12-02T01:51:37.623Z,6.05
2018-12-02T01:52:18.197Z,6.07
2018-12-02T01:52:58.769Z,6.01
2018-12-02T01:53:39.322Z,6.02
2018-12-02T01:54:19.867Z,6.04
2018-12-02T01:55:00.438Z,6.09
2018-12-02T01:55:41.046Z,6.09
2018-12-02T01:56:21.613Z,6.08
2018-12-02T01:57:02.164Z,6.05
2018-12-02T01:57:42.727Z,6.04
2018-12-02T01:58:23.289Z,6.02
2018-12-02T01:59:03.849Z,6.05
2018-12-02T01:59:44.403Z,6.02
2018-12-02T02:00:24.992Z,6.07
2018-12-02T02:01:05.552Z,6.07
2018-12-02T02:01:46.107Z,5.97
2018-12-02T02:02:26.666Z,6.08
2018-12-02T02:03:07.263Z,6.14
2018-12-02T02:03:47.835Z,5.91
2018-12-02T02:04:28.397Z,6.07
2018-12-02T02:05:08.949Z,6.11
2018-12-02T02:05:49.502Z,6.04
2018-12-02T02:06:30.062Z,6.04
2018-12-02T02:07:10.626Z,6.04
2018-12-02T02:07:51.185Z,6.09
2018-12-02T02:08:31.739Z,6.04
2018-12-02T02:09:12.301Z,5.97
2018-12-02T02:09:52.870Z,5.93
2018-12-02T02:10:33.436Z,6.08
2018-12-02T02:11:13.997Z,6.09
2018-12-02T02:11:54.576Z,6.04
2018-12-02T02:12:35.150Z,6.05
2018-12-02T02:13:15.706Z,6.12
2018-12-02T02:13:56.296Z,5.99
2018-12-02T02:14:36.821Z,6.05
2018-12-02T02:15:17.662Z,5.99
2018-12-02T02:15:58.007Z,6.09
2018-12-02T02:16:38.582Z,6.05
2018-12-02T02:17:19.165Z,6.07
2018-12-02T02:17:59.740Z,6.04
2018-12-02T02:18:40.290Z,5.99
2018-12-02T02:19:20.847Z,5.94
2018-12-02T02:20:01.399Z,6.01
2018-12-02T02:20:41.992Z,6.01
2018-12-02T02:21:22.560Z,6.02
2018-12-02T02:22:03.140Z,6.02
2018-12-02T02:22:43.726Z,6.04
2018-12-02T02:23:24.275Z,6.04
2018-12-02T02:24:04.833Z,6.01
2018-12-02T02:24:45.404Z,6.01
2018-12-02T02:25:25.962Z,5.99
2018-12-02T02:26:06.539Z,6.02
2018-12-02T02:26:47.107Z,5.99
2018-12-02T02:27:27.657Z,5.97
2018-12-02T02:28:08.212Z,6.01
2018-12-02T02:28:48.781Z,6.04
2018-12-02T02:29:29.366Z,5.97
2018-12-02T02:30:09.950Z,5.98
2018-12-02T02:30:50.502Z,6.01
2018-12-02T02:31:31.318Z,6.01
2018-12-02T02:32:11.870Z,5.97
2018-12-02T02:32:52.422Z,6.01
2018-12-02T02:33:32.980Z,5.99
2018-12-02T02:34:13.565Z,6.01
2018-12-02T02:34:54.165Z,6.08
2018-12-02T02:35:34.772Z,6.05
2018-12-02T02:36:15.318Z,6.08
2018-12-02T02:36:55.886Z,6.04
2018-12-02T02:37:36.440Z,6.05
2018-12-02T02:38:17.022Z,6.09
2018-12-02T02:38:57.576Z,6.08
2018-12-02T02:39:38.141Z,6.12
2018-12-02T02:40:18.722Z,6.14
2018-12-02T02:40:59.294Z,6.01
2018-12-02T02:41:39.849Z,6.07
2018-12-02T02:42:20.407Z,6.09
2018-12-02T02:43:00.958Z,6.08
2018-12-02T02:43:41.519Z,6.07
2018-12-02T02:44:22.074Z,6.14
2018-12-02T02:45:02.629Z,6.12
2018-12-02T02:45:43.189Z,6.12
2018-12-02T02:46:23.743Z,6.12
2018-12-02T02:47:04.303Z,6.11
2018-12-02T02:47:44.863Z,6.02
2018-12-02T02:48:25.477Z,6.02
2018-12-02T02:49:06.027Z,6.08
2018-12-02T02:49:46.577Z,6.02
2018-12-02T02:50:27.133Z,6.14
2018-12-02T02:51:07.695Z,6.05
2018-12-02T02:51:48.263Z,5.91
2018-12-02T02:52:28.814Z,6.04
2018-12-02T02:53:09.380Z,6.01
2018-12-02T02:53:49.943Z,6.01
2018-12-02T02:54:30.493Z,6.08
2018-12-02T02:55:11.049Z,6.04
2018-12-02T02:55:51.606Z,6.09
2018-12-02T02:56:32.162Z,6.01
2018-12-02T02:57:12.733Z,6.02
2018-12-02T02:57:53.282Z,6.05
2018-12-02T02:58:33.826Z,5.97
2018-12-02T02:59:14.401Z,6.07
2018-12-02T02:59:54.960Z,6.02
2018-12-02T03:00:35.522Z,6.05
2018-12-02T03:01:16.078Z,5.99
2018-12-02T03:01:56.638Z,6.05
2018-12-02T03:02:37.211Z,6.04
2018-12-02T03:03:17.753Z,5.98
2018-12-02T03:03:58.312Z,5.93
2018-12-02T03:04:38.864Z,5.93
2018-12-02T03:05:19.417Z,5.9
2018-12-02T03:05:59.962Z,5.99
2018-12-02T03:06:40.519Z,5.87
2018-12-02T03:07:21.068Z,5.93
2018-12-02T03:08:01.633Z,5.93
2018-12-02T03:08:42.203Z,5.93
2018-12-02T03:09:22.736Z,5.87
2018-12-02T03:10:03.291Z,5.76
2018-12-02T03:10:43.866Z,5.91
2018-12-02T03:11:24.446Z,5.86
2018-12-02T03:12:05.003Z,5.84
2018-12-02T03:12:45.563Z,5.89
2018-12-02T03:13:26.141Z,5.94
2018-12-02T03:14:06.710Z,5.91
2018-12-02T03:14:47.300Z,5.91
2018-12-02T03:15:27.900Z,5.86
2018-12-02T03:16:08.465Z,5.91
2018-12-02T03:16:49.034Z,5.9
2018-12-02T03:17:29.605Z,5.86
2018-12-02T03:18:10.169Z,5.91
2018-12-02T03:18:50.745Z,5.89
2018-12-02T03:19:31.307Z,5.83
2018-12-02T03:20:11.868Z,5.82
2018-12-02T03:20:52.442Z,5.83
2018-12-02T03:21:32.993Z,5.86
2018-12-02T03:22:13.542Z,5.84
2018-12-02T03:22:54.129Z,5.91
2018-12-02T03:23:34.658Z,5.9
2018-12-02T03:24:15.206Z,5.89
2018-12-02T03:24:55.770Z,5.97
2018-12-02T03:25:36.324Z,5.93
2018-12-02T03:26:16.898Z,5.9
2018-12-02T03:26:57.471Z,5.94
2018-12-02T03:27:38.026Z,5.93
2018-12-02T03:28:18.574Z,5.9
2018-12-02T03:28:59.142Z,5.97
2018-12-02T03:29:39.701Z,5.94
2018-12-02T03:30:20.284Z,5.91
2018-12-02T03:31:00.881Z,5.93
2018-12-02T03:31:41.395Z,5.9
2018-12-02T03:32:21.955Z,5.94
2018-12-02T03:33:02.529Z,5.91
2018-12-02T03:33:43.164Z,5.93
2018-12-02T03:34:23.649Z,5.9
2018-12-02T03:35:04.238Z,5.91
2018-12-02T03:35:44.815Z,5.9
2018-12-02T03:36:25.368Z,5.94
2018-12-02T03:37:05.946Z,5.93
2018-12-02T03:37:46.496Z,5.94
2018-12-02T03:38:27.048Z,5.94
2018-12-02T03:39:07.626Z,6.01
2018-12-02T03:39:48.201Z,5.97
2018-12-02T03:40:28.800Z,6.05
2018-12-02T03:41:09.338Z,5.98
2018-12-02T03:41:49.905Z,5.97
2018-12-02T03:42:30.461Z,6.07
2018-12-02T03:43:11.037Z,6.01
2018-12-02T03:43:51.591Z,6.01
2018-12-02T03:44:32.153Z,6.02
2018-12-02T03:45:12.747Z,6.02
2018-12-02T03:45:53.283Z,6.02
2018-12-02T03:46:33.854Z,6.07
2018-12-02T03:47:14.409Z,6.07
2018-12-02T03:47:54.977Z,6.09
2018-12-02T03:48:35.531Z,6.09
2018-12-02T03:49:16.225Z,6.05
2018-12-02T03:49:56.769Z,6.04
2018-12-02T03:50:37.330Z,6.05
2018-12-02T03:51:17.904Z,6.07
2018-12-02T03:51:58.475Z,5.98
2018-12-02T03:52:39.083Z,6.02
2018-12-02T03:53:19.649Z,6.02
2018-12-02T03:54:00.201Z,6.02
2018-12-02T03:54:40.768Z,6.07
2018-12-02T03:55:21.323Z,6.07
2018-12-02T03:56:01.893Z,6.02
2018-12-02T03:56:42.451Z,6.04
2018-12-02T03:57:22.998Z,6.04
2018-12-02T03:58:03.556Z,6.02
2018-12-02T03:58:44.098Z,6.07
2018-12-02T03:59:24.677Z,6.05
2018-12-02T04:00:05.262Z,6.12
2018-12-02T04:00:45.850Z,6.08
2018-12-02T04:01:26.411Z,6.02
2018-12-02T04:02:06.957Z,6.17
2018-12-02T04:02:47.549Z,6.12
2018-12-02T04:03:28.110Z,6.14
2018-12-02T04:04:08.671Z,6.02
2018-12-02T04:04:49.231Z,6.09
2018-12-02T04:05:29.790Z,6.09
2018-12-02T04:06:10.345Z,6.14
2018-12-02T04:06:50.910Z,6.05
2018-12-02T04:07:31.460Z,6.14
2018-12-02T04:08:12.031Z,6.12
2018-12-02T04:08:52.592Z,6.08
2018-12-02T04:09:33.190Z,6.09
2018-12-02T04:10:13.738Z,6.14
2018-12-02T04:10:54.291Z,6.17
2018-12-02T04:11:34.853Z,6.17
2018-12-02T04:12:15.417Z,6.26
2018-12-02T04:12:56.010Z,6.22
2018-12-02T04:13:36.554Z,6.2
2018-12-02T04:14:17.142Z,6.19
2018-12-02T04:14:57.700Z,6.24
2018-12-02T04:15:38.291Z,6.16
2018-12-02T04:16:18.843Z,6.19
2018-12-02T04:16:59.398Z,6.22
2018-12-02T04:17:39.950Z,6.14
2018-12-02T04:18:20.525Z,6.26
2018-12-02T04:19:01.096Z,6.17
2018-12-02T04:19:41.708Z,6.19
2018-12-02T04:20:22.309Z,6.14
2018-12-02T04:21:02.877Z,6.17
2018-12-02T04:21:43.445Z,6.19
2018-12-02T04:22:23.991Z,6.27
2018-12-02T04:23:04.553Z,6.22
2018-12-02T04:23:45.101Z,6.22
2018-12-02T04:24:25.680Z,6.24
2018-12-02T04:25:06.264Z,6.24
2018-12-02T04:25:46.832Z,6.2
2018-12-02T04:26:27.388Z,6.22
2018-12-02T04:27:07.935Z,6.24
2018-12-02T04:27:48.499Z,6.26
2018-12-02T04:28:29.061Z,6.27
2018-12-02T04:29:09.608Z,6.3
2018-12-02T04:29:50.173Z,6.3
2018-12-02T04:30:30.777Z,6.27
2018-12-02T04:31:11.357Z,6.19
2018-12-02T04:31:52.420Z,6.24
2018-12-02T04:32:32.970Z,6.26
2018-12-02T04:33:13.533Z,6.28
2018-12-02T04:33:54.108Z,6.28
2018-12-02T04:34:34.683Z,6.26
2018-12-02T04:35:15.260Z,6.24
2018-12-02T04:35:55.817Z,6.3
2018-12-02T04:36:36.362Z,6.26
2018-12-02T04:37:16.926Z,6.28
2018-12-02T04:37:57.495Z,6.24
2018-12-02T04:38:38.049Z,6.24
2018-12-02T04:39:18.613Z,6.26
2018-12-02T04:39:59.173Z,6.24
2018-12-02T04:40:39.738Z,6.2
2018-12-02T04:41:20.299Z,6.24
2018-12-02T04:42:00.859Z,6.17
2018-12-02T04:42:41.416Z,6.26
2018-12-02T04:43:21.965Z,6.33
2018-12-02T04:44:02.527Z,6.22
2018-12-02T04:44:43.090Z,6.19
2018-12-02T04:45:23.643Z,6.28
2018-12-02T04:46:04.223Z,6.26
2018-12-02T04:46:44.786Z,6.22
2018-12-02T04:47:25.385Z,6.24
2018-12-02T04:48:05.939Z,6.08
2018-12-02T04:48:46.532Z,6.16
2018-12-02T04:49:27.091Z,6.17
2018-12-02T04:50:07.700Z,6.09
2018-12-02T04:50:48.250Z,6.07
2018-12-02T04:51:28.829Z,6.11
2018-12-02T04:52:09.369Z,6.11
2018-12-02T04:52:49.929Z,6.09
2018-12-02T04:53:30.491Z,6.16
2018-12-02T04:54:11.040Z,6.09
2018-12-02T04:54:51.597Z,6.01
2018-12-02T04:55:32.181Z,6.11
2018-12-02T04:56:12.730Z,6.05
2018-12-02T04:56:53.289Z,6.02
2018-12-02T04:57:33.862Z,6.04
2018-12-02T04:58:14.412Z,5.97
2018-12-02T04:58:54.997Z,6.07
2018-12-02T04:59:35.561Z,6.04
2018-12-02T05:00:16.156Z,5.98
2018-12-02T05:00:56.721Z,6.07
2018-12-02T05:01:37.289Z,6.02
2018-12-02T05:02:17.869Z,6.01
2018-12-02T05:02:58.462Z,6.04
2018-12-02T05:03:39.017Z,5.99
2018-12-02T05:04:19.571Z,6.05
2018-12-02T05:05:00.132Z,6.05
2018-12-02T05:05:40.673Z,5.99
2018-12-02T05:06:21.237Z,5.94
2018-12-02T05:07:01.810Z,5.93
2018-12-02T05:07:42.377Z,5.94
2018-12-02T05:08:22.935Z,5.93
2018-12-02T05:09:03.479Z,5.93
2018-12-02T05:09:44.031Z,5.87
2018-12-02T05:10:24.581Z,5.93
2018-12-02T05:11:05.141Z,5.94
2018-12-02T05:11:45.715Z,5.94
2018-12-02T05:12:26.268Z,5.86
2018-12-02T05:13:06.819Z,5.84
2018-12-02T05:13:47.391Z,5.89
2018-12-02T05:14:27.979Z,5.91
2018-12-02T05:15:08.546Z,5.84
2018-12-02T05:15:49.098Z,5.84
2018-12-02T05:16:29.648Z,5.91
2018-12-02T05:17:10.215Z,5.84
2018-12-02T05:17:50.761Z,5.86
2018-12-02T05:18:31.327Z,5.87
2018-12-02T05:19:11.911Z,5.87
2018-12-02T05:19:52.478Z,5.75
2018-12-02T05:20:33.051Z,5.75
2018-12-02T05:21:13.617Z,5.86
2018-12-02T05:21:54.181Z,5.87
2018-12-02T05:22:34.728Z,5.75
2018-12-02T05:23:15.292Z,5.84
2018-12-02T05:23:55.856Z,5.84
2018-12-02T05:24:36.417Z,5.76
2018-12-02T05:25:18.362Z,5.75
2018-12-02T05:25:57.543Z,5.84
2018-12-02T05:26:38.104Z,5.9
2018-12-02T05:27:18.673Z,5.87
2018-12-02T05:27:59.237Z,5.8
2018-12-02T05:28:39.792Z,5.76
2018-12-02T05:29:20.348Z,5.75
2018-12-02T05:30:00.900Z,5.72
2018-12-02T05:30:41.451Z,5.79
2018-12-02T05:31:21.999Z,5.75
2018-12-02T05:32:02.567Z,5.73
2018-12-02T05:32:43.150Z,5.8
2018-12-02T05:33:23.708Z,5.73
2018-12-02T05:34:04.280Z,5.75
2018-12-02T05:34:45.256Z,5.84
2018-12-02T05:35:25.812Z,5.83
2018-12-02T05:36:06.370Z,5.75
2018-12-02T05:36:46.966Z,5.83
2018-12-02T05:37:27.508Z,5.83
2018-12-02T05:38:08.078Z,5.75
2018-12-02T05:38:48.652Z,5.8
2018-12-02T05:39:29.205Z,5.76
2018-12-02T05:40:09.774Z,5.8
2018-12-02T05:40:50.324Z,5.8
2018-12-02T05:41:30.873Z,5.87
2018-12-02T05:42:11.457Z,5.8
2018-12-02T05:42:52.035Z,5.8
2018-12-02T05:43:32.608Z,5.8
2018-12-02T05:44:13.169Z,5.83
2018-12-02T05:44:56.625Z,5.84
2018-12-02T05:45:37.174Z,5.83
2018-12-02T05:46:17.758Z,5.83
2018-12-02T05:49:42.561Z,5.87
2018-12-02T05:50:23.252Z,5.84
2018-12-02T05:51:03.806Z,5.86
2018-12-02T05:51:44.374Z,5.76
2018-12-02T05:52:24.971Z,5.86
2018-12-02T05:53:05.558Z,5.87
2018-12-02T05:53:46.101Z,5.84
2018-12-02T05:54:26.671Z,5.79
2018-12-02T05:55:07.259Z,5.82
2018-12-02T05:55:47.816Z,5.89
2018-12-02T05:56:28.385Z,5.93
2018-12-02T05:57:08.959Z,5.94
2018-12-02T05:57:49.510Z,5.94
2018-12-02T05:58:30.070Z,5.91
2018-12-02T05:59:10.621Z,5.91
2018-12-02T05:59:51.192Z,5.97
2018-12-02T06:00:31.748Z,5.89
2018-12-02T06:01:12.326Z,5.89
2018-12-02T06:01:52.903Z,5.87
2018-12-02T06:02:33.460Z,5.86
2018-12-02T06:03:14.031Z,5.91
2018-12-02T06:03:54.602Z,5.83
2018-12-02T06:04:35.168Z,5.89
2018-12-02T06:05:15.740Z,5.93
2018-12-02T06:05:56.326Z,5.9
2018-12-02T06:06:36.935Z,5.91
2018-12-02T06:07:17.504Z,5.91
2018-12-02T06:07:58.091Z,5.91
2018-12-02T06:08:38.645Z,5.9
2018-12-02T06:09:19.215Z,5.9
2018-12-02T06:09:59.768Z,5.99
2018-12-02T06:10:40.328Z,5.93
2018-12-02T06:11:20.908Z,6.01
2018-12-02T06:12:01.465Z,5.93
2018-12-02T06:12:42.015Z,5.94
2018-12-02T06:13:22.551Z,6.02
2018-12-02T06:14:03.127Z,5.99
2018-12-02T06:14:43.697Z,6.08
2018-12-02T06:15:24.259Z,6.04
2018-12-02T06:16:04.827Z,6.11
2018-12-02T06:16:45.378Z,6.07
2018-12-02T06:17:25.939Z,6.07
2018-12-02T06:18:06.487Z,6.05
2018-12-02T06:18:47.044Z,6.08
2018-12-02T06:19:27.638Z,6.07
2018-12-02T06:20:08.188Z,6.11
2018-12-02T06:20:48.736Z,6.09
2018-12-02T06:21:29.309Z,6.02
2018-12-02T06:22:09.872Z,6.07
2018-12-02T06:22:50.419Z,6.12
2018-12-02T06:23:30.981Z,6.14
2018-12-02T06:24:11.572Z,6.17
2018-12-02T06:24:52.147Z,6.17
2018-12-02T06:25:32.707Z,6.09
2018-12-02T06:26:13.266Z,6.27
2018-12-02T06:26:53.874Z,6.22
2018-12-02T06:27:34.429Z,6.24
2018-12-02T06:28:15.004Z,6.28
2018-12-02T06:28:55.581Z,6.27
2018-12-02T06:29:36.123Z,6.28
2018-12-02T06:30:16.670Z,6.26
2018-12-02T06:30:57.225Z,6.33
2018-12-02T06:31:38.050Z,6.3
2018-12-02T06:32:18.630Z,6.26
2018-12-02T06:32:59.240Z,6.31
2018-12-02T06:33:39.858Z,6.3
2018-12-02T06:34:20.363Z,6.31
2018-12-02T06:35:00.919Z,6.36
2018-12-02T06:35:41.468Z,6.41
2018-12-02T06:36:22.018Z,6.36
2018-12-02T06:37:02.587Z,6.41
2018-12-02T06:37:43.200Z,6.39
2018-12-02T06:38:23.759Z,6.45
2018-12-02T06:39:04.330Z,6.46
2018-12-02T06:39:44.889Z,6.45
2018-12-02T06:40:25.466Z,6.44
2018-12-02T06:41:06.020Z,6.52
2018-12-02T06:41:46.576Z,6.48
2018-12-02T06:42:27.152Z,6.51
2018-12-02T06:43:07.712Z,6.51
2018-12-02T06:43:48.282Z,6.51
2018-12-02T06:44:28.841Z,6.52
2018-12-02T06:45:09.397Z,6.52
2018-12-02T06:45:49.960Z,6.54
2018-12-02T06:46:30.529Z,6.59
2018-12-02T06:47:11.078Z,6.54
2018-12-02T06:47:51.642Z,6.57
2018-12-02T06:48:32.195Z,6.54
2018-12-02T06:49:12.795Z,6.62
2018-12-02T06:49:53.390Z,6.49
2018-12-02T06:50:33.961Z,6.59
2018-12-02T06:51:14.521Z,6.6
2018-12-02T06:51:55.081Z,6.52
2018-12-02T06:52:35.642Z,6.59
2018-12-02T06:53:16.381Z,6.59
2018-12-02T06:53:57.005Z,6.62
2018-12-02T06:54:37.527Z,6.59
2018-12-02T06:55:18.073Z,6.56
2018-12-02T06:55:58.637Z,6.62
2018-12-02T06:56:39.207Z,6.57
2018-12-02T06:57:19.773Z,6.57
2018-12-02T06:58:00.316Z,6.6
2018-12-02T06:58:40.893Z,6.66
2018-12-02T06:59:21.461Z,6.59
2018-12-02T07:00:02.019Z,6.56
2018-12-02T07:00:42.576Z,6.63
2018-12-02T07:01:23.138Z,6.6
2018-12-02T07:02:03.708Z,6.64
2018-12-02T07:02:44.256Z,6.66
2018-12-02T07:03:24.808Z,6.62
2018-12-02T07:04:05.386Z,6.72
2018-12-02T07:04:45.940Z,6.63
2018-12-02T07:05:26.503Z,6.57
2018-12-02T07:06:07.063Z,6.64
2018-12-02T07:06:47.636Z,6.66
2018-12-02T07:07:28.194Z,6.69
2018-12-02T07:08:08.749Z,6.66
2018-12-02T07:08:49.325Z,6.67
2018-12-02T07:09:29.936Z,6.62
2018-12-02T07:10:10.526Z,6.7
2018-12-02T07:10:51.116Z,6.69
2018-12-02T07:11:31.672Z,6.59
2018-12-02T07:12:12.248Z,6.74
2018-12-02T07:12:52.808Z,6.74
2018-12-02T07:13:33.377Z,6.7
2018-12-02T07:14:13.977Z,6.74
2018-12-02T07:14:55.542Z,6.74
2018-12-02T07:15:36.118Z,6.67
2018-12-02T07:16:16.676Z,6.74
2018-12-02T07:16:57.268Z,6.69
2018-12-02T07:17:37.843Z,6.74
2018-12-02T07:18:18.403Z,6.87
2018-12-02T07:18:58.954Z,6.97
2018-12-02T07:19:39.525Z,7.06
2018-12-02T07:20:20.129Z,7.23
2018-12-02T07:21:00.710Z,7.29
2018-12-02T07:21:41.276Z,7.36
2018-12-02T07:22:21.835Z,7.43
2018-12-02T07:23:02.437Z,7.47
2018-12-02T07:23:42.991Z,7.6
2018-12-02T07:24:23.540Z,7.7
2018-12-02T07:25:04.112Z,7.77
2018-12-02T07:25:44.733Z,7.87
2018-12-02T07:26:25.287Z,8.05
2018-12-02T07:27:05.862Z,8.16
2018-12-02T07:27:46.463Z,8.31
2018-12-02T07:28:27.030Z,8.38
2018-12-02T07:29:07.658Z,8.37
2018-12-02T07:29:48.199Z,8.44
2018-12-02T07:30:28.781Z,8.51
2018-12-02T07:31:09.330Z,8.53
2018-12-02T07:31:49.958Z,8.58
2018-12-02T07:32:30.530Z,8.49
2018-12-02T07:33:11.134Z,8.52
2018-12-02T07:33:51.693Z,8.52
2018-12-02T07:34:32.264Z,8.53
2018-12-02T07:35:12.806Z,8.48
2018-12-02T07:35:53.368Z,8.58
2018-12-02T07:36:33.918Z,8.63
2018-12-02T07:37:14.472Z,8.53
2018-12-02T07:37:55.041Z,8.49
2018-12-02T07:38:35.586Z,8.56
2018-12-02T07:39:16.139Z,8.49
2018-12-02T07:39:56.698Z,8.53
2018-12-02T07:40:37.254Z,8.49
2018-12-02T07:41:17.811Z,8.52
2018-12-02T07:41:58.380Z,8.46
2018-12-02T07:42:38.934Z,8.52
2018-12-02T07:43:19.660Z,8.52
2018-12-02T07:44:00.280Z,8.55
2018-12-02T07:44:40.884Z,8.51
2018-12-02T07:45:21.433Z,8.52
2018-12-02T07:46:01.973Z,8.52
2018-12-02T07:46:42.524Z,8.63
2018-12-02T07:47:23.095Z,8.51
2018-12-02T07:48:03.667Z,8.49
2018-12-02T07:48:44.193Z,8.66
2018-12-02T07:49:24.747Z,8.64
2018-12-02T07:50:05.326Z,8.67
2018-12-02T07:50:45.933Z,8.67
2018-12-02T07:51:26.459Z,8.69
2018-12-02T07:52:07.014Z,8.66
2018-12-02T07:52:47.568Z,8.7
2018-12-02T07:53:28.138Z,8.61
2018-12-02T07:54:08.703Z,8.52
2018-12-02T07:54:49.275Z,8.49
2018-12-02T07:55:29.853Z,8.44
2018-12-02T07:56:10.405Z,8.45
2018-12-02T07:56:50.960Z,8.37
2018-12-02T07:57:31.510Z,8.41
2018-12-02T07:58:12.063Z,8.37
2018-12-02T07:58:52.623Z,8.37
2018-12-02T07:59:33.279Z,8.41
2018-12-02T08:00:13.825Z,8.42
2018-12-02T08:00:54.381Z,8.37
2018-12-02T08:01:34.944Z,8.48
2018-12-02T08:02:15.494Z,8.45
2018-12-02T08:02:56.055Z,8.56
2018-12-02T08:03:36.688Z,8.49
2018-12-02T08:04:17.186Z,8.49
2018-12-02T08:04:57.760Z,8.61
2018-12-02T08:05:38.308Z,8.55
2018-12-02T08:06:18.882Z,8.55
2018-12-02T08:06:59.431Z,8.48
2018-12-02T08:07:39.996Z,8.51
2018-12-02T08:08:20.551Z,8.38
2018-12-02T08:09:01.184Z,8.38
2018-12-02T08:09:41.777Z,8.42
2018-12-02T08:10:22.384Z,8.34
2018-12-02T08:11:02.931Z,8.27
2018-12-02T08:11:43.485Z,8.24
2018-12-02T08:12:24.069Z,8.23
2018-12-02T08:13:04.635Z,8.16
2018-12-02T08:13:45.206Z,8.2
2018-12-02T08:14:25.780Z,8.19
2018-12-02T08:15:06.372Z,8.18
2018-12-02T08:15:46.910Z,8.15
2018-12-02T08:16:27.867Z,8.24
2018-12-02T08:17:08.433Z,8.23
2018-12-02T08:17:49.021Z,8.26
2018-12-02T08:18:29.582Z,8.24
2018-12-02T08:19:10.165Z,8.2
2018-12-02T08:19:50.714Z,8.2
2018-12-02T08:20:31.276Z,8.28
2018-12-02T08:21:11.847Z,8.18
2018-12-02T08:21:52.407Z,8.27
2018-12-02T08:22:32.987Z,8.24
2018-12-02T08:23:13.542Z,8.18
2018-12-02T08:23:54.125Z,8.15
2018-12-02T08:24:34.713Z,7.98
2018-12-02T08:25:15.344Z,8.03
2018-12-02T08:25:55.906Z,8
2018-12-02T08:26:36.473Z,7.93
2018-12-02T08:27:17.030Z,7.93
2018-12-02T08:27:57.635Z,7.91
2018-12-02T08:28:38.215Z,7.73
2018-12-02T08:29:18.761Z,7.72
2018-12-02T08:29:59.321Z,7.61
2018-12-02T08:30:40.120Z,7.66
2018-12-02T08:31:20.701Z,7.5
2018-12-02T08:32:01.252Z,7.54
2018-12-02T08:32:41.823Z,7.48
2018-12-02T08:33:22.388Z,7.36
2018-12-02T08:34:02.982Z,7.36
2018-12-02T08:34:43.540Z,7.33
2018-12-02T08:35:24.340Z,7.4
2018-12-02T08:36:04.907Z,7.32
2018-12-02T08:36:45.504Z,7.32
2018-12-02T08:37:26.182Z,7.33
2018-12-02T08:38:06.778Z,7.33
2018-12-02T08:38:47.361Z,7.25
2018-12-02T08:39:28.039Z,7.33
2018-12-02T08:40:08.757Z,7.31
2018-12-02T08:40:49.333Z,7.32
2018-12-02T08:41:29.906Z,7.2
2018-12-02T08:42:10.471Z,7.2
2018-12-02T08:42:51.025Z,7.2
2018-12-02T08:43:31.602Z,7.2
2018-12-02T08:44:12.177Z,7.21
2018-12-02T08:44:52.732Z,7.23
2018-12-02T08:45:33.295Z,7.21
2018-12-02T08:46:13.876Z,7.2
2018-12-02T08:46:54.473Z,7.18
2018-12-02T08:47:35.204Z,7.17
2018-12-02T08:48:16.108Z,7.15
2018-12-02T08:48:56.714Z,7.2
2018-12-02T08:49:37.403Z,7.21
2018-12-02T08:50:18.026Z,7.15
2018-12-02T08:50:58.668Z,7.18
2018-12-02T08:51:39.336Z,7.15
2018-12-02T08:52:19.974Z,7.14
2018-12-02T08:53:00.532Z,7.05
2018-12-02T08:53:41.105Z,7.13
2018-12-02T08:54:21.662Z,7.13
2018-12-02T08:55:02.237Z,7.06
2018-12-02T08:55:42.797Z,7.1
2018-12-02T08:56:23.352Z,7.06
2018-12-02T08:57:03.926Z,7.11
2018-12-02T08:57:44.480Z,7.13
2018-12-02T08:58:25.041Z,7.03
2018-12-02T08:59:05.689Z,7.05
2018-12-02T08:59:46.238Z,7.07
2018-12-02T09:00:26.820Z,7.02
2018-12-02T09:01:07.388Z,7.02
2018-12-02T09:01:47.973Z,7.05
2018-12-02T09:02:28.557Z,7.05
2018-12-02T09:03:09.171Z,7.1
2018-12-02T09:03:49.720Z,7.03